createdAt,value
2022-09-10T00:02:14.915Z,0.73
2022-09-10T00:04:43.653Z,0.80
2022-09-10T00:07:15.400Z,0.73
2022-09-10T00:09:48.190Z,0.80
2022-09-10T00:12:17.540Z,0.80
2022-09-10T00:14:50.542Z,1.00
2022-09-10T00:17:18.750Z,0.97
2022-09-10T00:19:52.557Z,0.73
2022-09-10T00:22:28.061Z,0.80
2022-09-10T00:25:07.630Z,0.83
2022-09-10T00:27:38.306Z,1.00
2022-09-10T00:30:09.656Z,0.80
2022-09-10T00:32:40.438Z,0.70
2022-09-10T00:35:08.916Z,0.90
2022-09-10T00:37:40.088Z,0.90
2022-09-10T00:40:14.602Z,0.70
2022-09-10T00:43:00.164Z,0.70
2022-09-10T00:45:31.912Z,0.80
2022-09-10T00:48:21.969Z,1.00
2022-09-10T00:50:55.421Z,0.80
2022-09-10T00:53:32.783Z,0.97
2022-09-10T00:56:08.050Z,0.70
2022-09-10T00:58:43.200Z,0.97
2022-09-10T01:01:23.962Z,0.70
2022-09-10T01:03:57.908Z,0.90
2022-09-10T01:06:25.321Z,0.93
2022-09-10T01:08:57.270Z,0.70
2022-09-10T01:11:43.994Z,1.00
2022-09-10T01:14:34.643Z,0.70
2022-09-10T01:17:20.700Z,0.80
2022-09-10T01:20:02.797Z,0.80
2022-09-10T01:22:53.147Z,0.80
2022-09-10T01:25:41.478Z,0.70
2022-09-10T01:28:14.118Z,0.93
2022-09-10T01:30:48.800Z,0.83
2022-09-10T01:33:25.703Z,0.70
2022-09-10T01:35:56.432Z,0.83
2022-09-10T01:38:38.856Z,0.63
2022-09-10T01:41:10.748Z,0.63
2022-09-10T01:43:44.419Z,1.10
2022-09-10T01:46:32.501Z,0.90
2022-09-10T01:49:06.926Z,1.10
2022-09-10T01:51:43.863Z,1.00
2022-09-10T01:57:37.794Z,0.90
2022-09-10T02:00:15.569Z,0.80
2022-09-10T02:02:53.969Z,1.03
2022-09-10T02:05:43.514Z,0.80
2022-09-10T02:08:31.365Z,1.27
2022-09-10T02:11:17.818Z,1.10
2022-09-10T02:13:51.636Z,1.10
2022-09-10T02:16:36.074Z,0.93
2022-09-10T02:19:06.107Z,0.90
2022-09-10T02:21:39.138Z,1.00
2022-09-10T02:24:07.638Z,1.03
2022-09-10T02:26:42.159Z,0.90
2022-09-10T02:29:13.995Z,0.90
2022-09-10T02:31:46.327Z,1.30
2022-09-10T02:34:19.509Z,0.90
2022-09-10T02:36:54.812Z,1.63
2022-09-10T02:39:26.076Z,1.40
2022-09-10T02:41:58.927Z,1.10
2022-09-10T02:44:33.878Z,1.10
2022-09-10T02:47:04.578Z,1.00
2022-09-10T02:49:40.479Z,0.70
2022-09-10T02:52:13.467Z,1.10
2022-09-10T02:54:54.938Z,0.70
2022-09-10T02:57:24.517Z,1.20
2022-09-10T02:59:53.949Z,0.80
2022-09-10T03:02:23.448Z,1.10
2022-09-10T03:04:52.865Z,0.93
2022-09-10T03:07:23.424Z,0.80
2022-09-10T03:09:53.671Z,0.70
2022-09-10T03:12:22.405Z,1.00
2022-09-10T03:14:55.881Z,0.87
2022-09-10T03:17:31.245Z,1.00
2022-09-10T03:20:01.183Z,1.07
2022-09-10T03:22:32.182Z,0.80
2022-09-10T03:25:03.333Z,1.10
2022-09-10T03:27:36.714Z,1.00
2022-09-10T03:30:06.269Z,1.13
2022-09-10T03:32:37.070Z,1.20
2022-09-10T03:35:09.138Z,1.03
2022-09-10T03:37:41.306Z,1.10
2022-09-10T03:40:12.515Z,1.00
2022-09-10T03:42:54.598Z,1.40
2022-09-10T03:45:26.988Z,0.93
2022-09-10T03:47:56.415Z,1.10
2022-09-10T03:50:29.639Z,1.00
2022-09-10T03:52:59.948Z,0.90
2022-09-10T03:55:33.604Z,1.00
2022-09-10T03:58:02.057Z,1.30
2022-09-10T04:00:32.979Z,0.90
2022-09-10T04:03:04.152Z,0.97
2022-09-10T04:05:36.038Z,1.20
2022-09-10T04:08:03.807Z,0.90
2022-09-10T04:10:33.547Z,1.20
2022-09-10T04:13:06.168Z,1.10
2022-09-10T04:15:37.652Z,1.10
2022-09-10T04:18:08.402Z,1.00
2022-09-10T04:23:22.953Z,1.10
2022-09-10T04:25:55.347Z,1.13
2022-09-10T04:28:27.814Z,1.10
2022-09-10T04:30:58.776Z,1.20
2022-09-10T04:33:27.549Z,1.13
2022-09-10T04:35:58.600Z,1.00
2022-09-10T04:38:31.504Z,1.00
2022-09-10T04:41:03.898Z,1.17
2022-09-10T04:43:33.885Z,1.10
2022-09-10T04:46:01.431Z,1.10
2022-09-10T04:48:31.375Z,1.13
2022-09-10T04:51:18.114Z,1.10
2022-09-10T04:53:49.749Z,1.30
2022-09-10T04:56:19.631Z,1.13
2022-09-10T04:58:55.113Z,1.23
2022-09-10T05:01:28.122Z,0.90
2022-09-10T05:03:59.133Z,1.03
2022-09-10T05:06:29.967Z,1.00
2022-09-10T05:08:58.793Z,1.30
2022-09-10T05:11:31.880Z,0.80
2022-09-10T05:14:01.669Z,1.30
2022-09-10T05:16:35.825Z,1.10
2022-09-10T05:19:07.049Z,1.40
2022-09-10T05:21:38.043Z,1.30
2022-09-10T05:24:08.624Z,1.37
2022-09-10T05:26:36.961Z,1.27
2022-09-10T05:29:11.934Z,1.10
2022-09-10T05:31:40.123Z,1.17
2022-09-10T05:34:12.640Z,1.53
2022-09-10T05:36:43.495Z,1.37
2022-09-10T05:39:13.022Z,1.33
2022-09-10T05:41:42.610Z,1.00
2022-09-10T05:44:11.192Z,1.20
2022-09-10T05:46:51.959Z,1.53
2022-09-10T05:49:21.745Z,1.00
2022-09-10T05:51:51.457Z,1.47
2022-09-10T05:54:24.952Z,1.20
2022-09-10T05:56:57.314Z,1.20
2022-09-10T05:59:26.911Z,1.40
2022-09-10T06:02:00.066Z,1.67
2022-09-10T06:04:34.331Z,1.20
2022-09-10T06:07:05.104Z,1.50
2022-09-10T06:09:35.908Z,1.07
2022-09-10T06:12:21.811Z,1.53
2022-09-10T06:14:55.758Z,1.57
2022-09-10T06:17:26.308Z,1.30
2022-09-10T06:19:57.787Z,1.47
2022-09-10T06:22:29.512Z,1.97
2022-09-10T06:24:58.614Z,1.50
2022-09-10T06:27:29.396Z,1.63
2022-09-10T06:29:57.727Z,1.87
2022-09-10T06:32:26.371Z,1.60
2022-09-10T06:34:57.767Z,1.70
2022-09-10T06:37:30.637Z,1.67
2022-09-10T06:40:01.132Z,1.77
2022-09-10T06:42:33.761Z,1.40
2022-09-10T06:45:04.602Z,1.57
2022-09-10T06:50:29.313Z,1.70
2022-09-10T06:52:58.815Z,1.70
2022-09-10T06:55:32.501Z,1.50
2022-09-10T06:58:06.424Z,1.50
2022-09-10T07:03:24.605Z,1.40
2022-09-10T07:06:07.251Z,1.27
2022-09-10T07:08:39.168Z,1.57
2022-09-10T07:11:12.241Z,1.80
2022-09-10T07:13:45.462Z,1.80
2022-09-10T07:16:17.322Z,1.93
2022-09-10T07:18:50.747Z,1.50
2022-09-10T07:21:22.590Z,1.43
2022-09-10T07:23:58.975Z,1.53
2022-09-10T07:26:26.500Z,1.37
2022-09-10T07:28:55.217Z,1.67
2022-09-10T07:31:36.765Z,1.67
2022-09-10T07:34:06.905Z,1.23
2022-09-10T07:36:39.654Z,1.33
2022-09-10T07:39:13.757Z,1.40
2022-09-10T07:41:47.766Z,1.27
2022-09-10T07:44:17.900Z,1.40
2022-09-10T07:46:49.263Z,1.47
2022-09-10T07:49:19.370Z,1.23
2022-09-10T07:51:48.694Z,1.20
2022-09-10T07:54:19.206Z,1.30
2022-09-10T07:56:57.727Z,1.40
2022-09-10T07:59:29.266Z,1.40
2022-09-10T08:02:02.609Z,1.60
2022-09-10T08:04:39.571Z,1.30
2022-09-10T08:07:17.942Z,1.40
2022-09-10T08:09:51.459Z,1.33
2022-09-10T08:12:27.362Z,1.40
2022-09-10T08:15:09.429Z,1.27
2022-09-10T08:17:42.489Z,1.30
2022-09-10T08:20:14.999Z,1.13
2022-09-10T08:22:43.620Z,1.30
2022-09-10T08:25:17.053Z,1.20
2022-09-10T08:27:48.295Z,1.30
2022-09-10T08:30:18.752Z,1.50
2022-09-10T08:32:55.100Z,1.23
2022-09-10T08:35:27.207Z,1.50
2022-09-10T08:37:57.570Z,1.60
2022-09-10T08:40:30.719Z,1.50
2022-09-10T08:43:06.539Z,1.73
2022-09-10T08:45:39.497Z,2.13
2022-09-10T08:48:20.389Z,2.53
2022-09-10T08:54:14.200Z,2.60
2022-09-10T08:56:44.267Z,2.27
2022-09-10T08:59:33.009Z,1.87
2022-09-10T09:02:16.575Z,2.63
2022-09-10T09:05:10.295Z,6.47
2022-09-10T09:07:43.793Z,7.73
2022-09-10T09:13:20.551Z,8.27
2022-09-10T09:16:04.323Z,6.97
2022-09-10T09:19:00.486Z,6.60
2022-09-10T09:21:47.146Z,7.23
2022-09-10T09:24:20.316Z,7.20
2022-09-10T09:27:09.184Z,6.57
2022-09-10T09:29:53.660Z,6.07
2022-09-10T09:32:26.966Z,6.13
2022-09-10T09:35:00.271Z,6.27
2022-09-10T09:37:35.181Z,6.17
2022-09-10T09:40:34.510Z,5.83
2022-09-10T09:43:16.717Z,6.70
2022-09-10T09:45:46.752Z,5.70
2022-09-10T09:48:18.980Z,6.30
2022-09-10T09:50:52.657Z,5.97
2022-09-10T09:53:36.842Z,5.33
2022-09-10T09:56:21.414Z,5.77
2022-09-10T09:59:06.151Z,5.10
2022-09-10T10:01:44.229Z,4.50
2022-09-10T10:04:31.498Z,5.10
2022-09-10T10:07:01.892Z,4.80
2022-09-10T10:09:35.402Z,4.87
2022-09-10T10:12:18.727Z,4.47
2022-09-10T10:14:54.613Z,4.20
2022-09-10T10:17:33.283Z,4.20
2022-09-10T10:20:05.917Z,3.87
2022-09-10T10:22:35.798Z,3.90
2022-09-10T10:25:31.123Z,3.90
2022-09-10T10:30:47.873Z,3.83
2022-09-10T10:33:25.314Z,3.47
2022-09-10T10:36:12.314Z,3.47
2022-09-10T10:38:58.018Z,3.20
2022-09-10T10:41:39.122Z,3.20
2022-09-10T10:44:13.584Z,2.83
2022-09-10T10:47:03.362Z,3.07
2022-09-10T10:49:52.927Z,3.20
2022-09-10T10:52:41.697Z,3.23
2022-09-10T10:55:15.883Z,2.87
2022-09-10T10:58:02.147Z,2.53
2022-09-10T11:00:49.290Z,2.70
2022-09-10T11:03:31.882Z,2.60
2022-09-10T11:06:17.492Z,2.80
2022-09-10T11:09:10.987Z,3.07
2022-09-10T11:11:55.371Z,3.07
2022-09-10T11:14:40.593Z,2.73
2022-09-10T11:17:19.969Z,2.50
2022-09-10T11:20:36.274Z,3.00
2022-09-10T11:23:31.101Z,2.67
2022-09-10T11:26:10.498Z,2.57
2022-09-10T11:28:43.768Z,2.77
2022-09-10T11:31:18.876Z,2.60
2022-09-10T11:33:57.284Z,2.10
2022-09-10T11:36:37.620Z,2.20
2022-09-10T11:39:40.751Z,2.10
2022-09-10T11:42:37.090Z,2.20
2022-09-10T11:45:26.672Z,2.00
2022-09-10T11:51:08.319Z,2.10
2022-09-10T11:53:41.960Z,2.10
2022-09-10T11:56:16.921Z,2.03
2022-09-10T11:59:03.975Z,2.40
2022-09-10T12:02:04.980Z,2.03
2022-09-10T12:05:02.888Z,1.90
2022-09-10T12:07:52.540Z,1.80
2022-09-10T12:10:33.208Z,1.80
2022-09-10T12:13:04.877Z,1.93
2022-09-10T12:15:37.406Z,2.10
2022-09-10T12:18:26.540Z,1.80
2022-09-10T12:21:11.779Z,2.17
2022-09-10T12:23:47.649Z,1.73
2022-09-10T12:26:23.204Z,1.70
2022-09-10T12:28:55.614Z,1.87
2022-09-10T12:31:31.059Z,1.80
2022-09-10T12:34:34.003Z,2.37
2022-09-10T12:37:03.704Z,2.17
2022-09-10T12:39:33.960Z,2.43
2022-09-10T12:42:27.873Z,2.37
2022-09-10T12:44:58.681Z,2.17
2022-09-10T12:47:51.897Z,2.00
2022-09-10T12:50:37.247Z,2.50
2022-09-10T12:53:37.024Z,2.40
2022-09-10T12:56:27.094Z,2.33
2022-09-10T12:59:02.638Z,2.57
2022-09-10T13:01:42.197Z,19.80
2022-09-10T13:04:33.985Z,19.00
2022-09-10T13:07:17.135Z,17.17
2022-09-10T13:09:50.222Z,13.27
2022-09-10T13:12:27.216Z,12.23
2022-09-10T13:14:59.716Z,11.43
2022-09-10T13:17:38.266Z,11.50
2022-09-10T13:20:17.961Z,10.27
2022-09-10T13:23:05.730Z,9.87
2022-09-10T13:25:46.845Z,9.07
2022-09-10T13:28:37.494Z,7.83
2022-09-10T13:34:21.090Z,6.40
2022-09-10T13:36:56.871Z,5.77
2022-09-10T13:40:00.541Z,6.20
2022-09-10T13:42:52.454Z,5.37
2022-09-10T13:45:39.178Z,4.40
2022-09-10T13:48:11.982Z,5.30
2022-09-10T13:51:02.482Z,4.30
2022-09-10T13:53:42.250Z,4.33
2022-09-10T13:56:49.282Z,3.83
2022-09-10T13:59:31.388Z,4.10
2022-09-10T14:02:00.120Z,4.40
2022-09-10T14:04:34.006Z,3.50
2022-09-10T14:07:18.084Z,4.00
2022-09-10T14:10:02.083Z,3.50
2022-09-10T14:12:39.706Z,3.00
2022-09-10T14:15:09.853Z,3.60
2022-09-10T14:17:47.974Z,3.23
2022-09-10T14:20:40.025Z,3.40
2022-09-10T14:23:22.339Z,3.03
2022-09-10T14:26:10.933Z,3.47
2022-09-10T14:28:53.652Z,2.80
2022-09-10T14:31:31.778Z,3.00
2022-09-10T14:34:23.314Z,3.00
2022-09-10T14:39:37.060Z,3.20
2022-09-10T14:42:27.759Z,3.30
2022-09-10T14:44:58.852Z,3.47
2022-09-10T14:47:57.028Z,3.23
2022-09-10T14:50:36.623Z,2.73
2022-09-10T14:53:06.600Z,2.80
2022-09-10T14:55:34.636Z,3.17
2022-09-10T14:58:09.051Z,2.73
2022-09-10T15:00:38.922Z,2.90
2022-09-10T15:03:10.348Z,2.80
2022-09-10T15:05:42.795Z,2.60
2022-09-10T15:08:12.067Z,2.30
2022-09-10T15:10:47.024Z,2.37
2022-09-10T15:13:31.423Z,2.07
2022-09-10T15:16:17.099Z,2.30
2022-09-10T15:18:49.062Z,2.20
2022-09-10T15:21:18.114Z,2.10
2022-09-10T15:23:51.370Z,1.70
2022-09-10T15:26:23.118Z,1.83
2022-09-10T15:28:55.199Z,1.77
2022-09-10T15:31:32.030Z,1.70
2022-09-10T15:34:04.756Z,2.10
2022-09-10T15:36:43.391Z,1.50
2022-09-10T15:39:28.544Z,1.87
2022-09-10T15:42:03.236Z,1.60
2022-09-10T15:44:35.496Z,1.60
2022-09-10T15:47:06.238Z,2.10
2022-09-10T15:49:36.350Z,1.63
2022-09-10T15:52:10.228Z,1.30
2022-09-10T15:54:46.564Z,1.50
2022-09-10T15:57:25.150Z,1.60
2022-09-10T15:59:56.781Z,1.40
2022-09-10T16:02:28.577Z,1.20
2022-09-10T16:05:02.909Z,1.43
2022-09-10T16:07:36.272Z,1.33
2022-09-10T16:10:12.083Z,1.20
2022-09-10T16:12:43.528Z,1.97
2022-09-10T16:15:15.502Z,1.70
2022-09-10T16:17:46.789Z,1.60
2022-09-10T16:20:17.721Z,1.40
2022-09-10T16:25:36.542Z,1.40
2022-09-10T16:28:10.820Z,1.60
2022-09-10T16:30:41.137Z,1.83
2022-09-10T16:33:11.468Z,1.60
2022-09-10T16:35:42.706Z,2.03
2022-09-10T16:38:13.050Z,2.10
2022-09-10T16:40:44.690Z,2.20
2022-09-10T16:43:15.317Z,2.00
2022-09-10T16:46:02.602Z,2.13
2022-09-10T16:51:34.083Z,2.00
2022-09-10T16:54:03.666Z,1.83
2022-09-10T16:56:34.640Z,2.17
2022-09-10T16:59:06.712Z,1.83
2022-09-10T17:01:41.898Z,1.87
2022-09-10T17:04:18.629Z,2.03
2022-09-10T17:06:52.468Z,2.37
2022-09-10T17:09:23.667Z,1.90
2022-09-10T17:11:54.498Z,1.80
2022-09-10T17:14:27.009Z,1.57
2022-09-10T17:16:56.834Z,1.47
2022-09-10T17:19:26.623Z,1.70
2022-09-10T17:22:01.116Z,1.27
2022-09-10T17:24:32.500Z,1.60
2022-09-10T17:27:09.717Z,1.37
2022-09-10T17:29:39.657Z,1.47
2022-09-10T17:32:09.289Z,1.40
2022-09-10T17:34:37.054Z,1.57
2022-09-10T17:37:08.244Z,1.57
2022-09-10T17:39:36.668Z,1.40
2022-09-10T17:42:08.896Z,1.50
2022-09-10T17:44:37.252Z,1.63
2022-09-10T17:47:06.691Z,1.40
2022-09-10T17:49:37.076Z,1.77
2022-09-10T17:52:07.771Z,1.40
2022-09-10T17:54:39.084Z,1.40
2022-09-10T17:57:09.812Z,1.40
2022-09-10T17:59:41.878Z,1.30
2022-09-10T18:02:14.529Z,1.30
2022-09-10T18:04:48.244Z,1.37
2022-09-10T18:07:16.696Z,1.43
2022-09-10T18:09:50.277Z,1.30
2022-09-10T18:12:24.716Z,1.20
2022-09-10T18:14:58.524Z,1.30
2022-09-10T18:17:30.712Z,1.20
2022-09-10T18:19:59.130Z,1.17
2022-09-10T18:22:31.039Z,1.43
2022-09-10T18:25:04.252Z,1.30
2022-09-10T18:27:36.764Z,1.17
2022-09-10T18:30:04.667Z,1.10
2022-09-10T18:35:21.825Z,1.30
2022-09-10T18:37:54.021Z,1.20
2022-09-10T18:40:26.846Z,1.03
2022-09-10T18:42:59.483Z,1.20
2022-09-10T18:45:32.543Z,1.37
2022-09-10T18:48:04.327Z,1.30
2022-09-10T18:50:31.865Z,1.17
2022-09-10T18:53:03.904Z,1.70
2022-09-10T18:55:32.591Z,1.50
2022-09-10T18:58:03.496Z,1.30
2022-09-10T19:00:34.006Z,1.43
2022-09-10T19:03:04.550Z,1.37
2022-09-10T19:05:35.514Z,1.13
2022-09-10T19:08:07.922Z,1.20
2022-09-10T19:10:47.817Z,1.63
2022-09-10T19:13:18.867Z,1.17
2022-09-10T19:16:00.067Z,1.00
2022-09-10T19:18:34.973Z,1.70
2022-09-10T19:21:06.839Z,1.20
2022-09-10T19:23:36.224Z,1.60
2022-09-10T19:26:12.376Z,1.10
2022-09-10T19:28:44.564Z,1.10
2022-09-10T19:31:16.618Z,1.30
2022-09-10T19:33:49.791Z,1.10
2022-09-10T19:36:21.491Z,1.30
2022-09-10T19:38:56.803Z,1.50
2022-09-10T19:41:28.116Z,1.10
2022-09-10T19:44:00.662Z,1.07
2022-09-10T19:46:32.032Z,1.23
2022-09-10T19:49:07.384Z,1.10
2022-09-10T19:51:37.808Z,1.00
2022-09-10T19:54:15.097Z,1.30
2022-09-10T19:56:45.451Z,1.43
2022-09-10T19:59:26.460Z,1.33
2022-09-10T20:01:57.713Z,1.40
2022-09-10T20:04:30.127Z,1.40
2022-09-10T20:07:02.797Z,1.27
2022-09-10T20:09:39.670Z,1.20
2022-09-10T20:12:09.516Z,1.40
2022-09-10T20:14:41.965Z,1.27
2022-09-10T20:17:09.541Z,1.50
2022-09-10T20:19:41.826Z,1.60
2022-09-10T20:22:12.609Z,1.30
2022-09-10T20:24:45.359Z,1.30
2022-09-10T20:27:16.064Z,1.00
2022-09-10T20:29:46.673Z,1.17
2022-09-10T20:32:19.295Z,1.40
2022-09-10T20:34:47.914Z,2.67
2022-09-10T20:37:20.927Z,11.90
2022-09-10T20:39:53.315Z,22.10
2022-09-10T20:42:30.891Z,29.90
2022-09-10T20:45:00.673Z,31.47
2022-09-10T20:47:42.828Z,35.27
2022-09-10T20:50:13.846Z,37.23
2022-09-10T20:52:54.553Z,32.30
2022-09-10T20:55:25.108Z,33.47
2022-09-10T20:57:57.135Z,32.30
2022-09-10T21:00:29.604Z,30.07
2022-09-10T21:02:59.973Z,29.90
2022-09-10T21:05:31.886Z,27.27
2022-09-10T21:08:03.692Z,26.70
2022-09-10T21:10:32.120Z,24.77
2022-09-10T21:13:04.490Z,24.27
2022-09-10T21:15:36.055Z,22.67
2022-09-10T21:20:49.389Z,19.77
2022-09-10T21:23:24.251Z,16.97
2022-09-10T21:25:54.174Z,17.83
2022-09-10T21:28:25.109Z,16.17
2022-09-10T21:30:52.705Z,16.90
2022-09-10T21:33:22.802Z,14.93
2022-09-10T21:36:01.768Z,12.77
2022-09-10T21:38:35.949Z,13.67
2022-09-10T21:41:09.450Z,12.10
2022-09-10T21:43:41.288Z,12.03
2022-09-10T21:46:09.899Z,10.60
2022-09-10T21:48:42.985Z,11.63
2022-09-10T21:51:18.157Z,11.13
2022-09-10T21:53:46.747Z,9.80
2022-09-10T21:59:02.029Z,8.63
2022-09-10T22:01:36.131Z,7.93
2022-09-10T22:04:09.893Z,7.53
2022-09-10T22:06:39.935Z,6.50
2022-09-10T22:09:16.772Z,6.07
2022-09-10T22:11:55.014Z,7.10
2022-09-10T22:14:35.684Z,6.00
2022-09-10T22:17:11.448Z,5.17
2022-09-10T22:19:41.055Z,5.40
2022-09-10T22:22:12.226Z,4.80
2022-09-10T22:24:42.462Z,5.20
2022-09-10T22:27:17.808Z,5.03
2022-09-10T22:29:48.460Z,5.10
2022-09-10T22:32:19.690Z,4.20
2022-09-10T22:37:36.797Z,3.90
2022-09-10T22:40:07.929Z,3.67
2022-09-10T22:42:41.194Z,3.80
2022-09-10T22:45:21.208Z,3.33
2022-09-10T22:47:52.752Z,3.43
2022-09-10T22:50:25.041Z,3.40
2022-09-10T22:52:57.520Z,3.80
2022-09-10T22:55:37.992Z,3.00
2022-09-10T22:58:06.712Z,3.47
2022-09-10T23:00:41.254Z,3.10
2022-09-10T23:03:10.201Z,3.40
2022-09-10T23:05:38.596Z,2.63
2022-09-10T23:08:08.068Z,3.10
2022-09-10T23:10:41.016Z,3.00
2022-09-10T23:13:13.151Z,2.90
2022-09-10T23:15:45.607Z,2.77
2022-09-10T23:18:17.081Z,2.83
2022-09-10T23:20:48.747Z,2.70
2022-09-10T23:23:18.766Z,2.50
2022-09-10T23:25:54.432Z,2.37
2022-09-10T23:28:24.640Z,2.80
2022-09-10T23:30:53.187Z,2.30
2022-09-10T23:33:27.724Z,2.67
2022-09-10T23:35:56.911Z,2.43
2022-09-10T23:38:31.770Z,2.60
2022-09-10T23:41:06.691Z,2.23
2022-09-10T23:43:36.858Z,2.47
2022-09-10T23:46:15.608Z,2.50
2022-09-10T23:48:46.590Z,2.47
2022-09-10T23:51:18.388Z,2.80
2022-09-10T23:54:11.398Z,2.93
2022-09-10T23:56:40.280Z,2.43
2022-09-10T23:59:20.421Z,2.53
